Terminal Aerodrome Forecast
Issued by NWS Raleigh/Durham, NC

Home | Current Version | Previous Version | Text Only | Print | Product List | Glossary On
Versions: 1 2 3 4 5 6 7 8 9 10 11 12 13 14 15 16 17 18 19 20 21 22 23 24 25 26 27 28 29 30 31 32
000
FTUS42 KRAH 221336 AAA
TAFRDU
TAF AMD
KRDU 221336Z 2214/2312 23005KT P6SM BKN012 BKN150 BKN250
     FM221445 22005KT P6SM VCSH SCT040 BKN150 BKN250
     FM222200 20006KT P6SM SCT050 BKN200=

USA.gov is the U.S. government's official web portal to all federal, state and local government web resources and services.